Saint Johns, AZ (85936)

6:57 PM MST on May 24, 2015 (GMT -0700)
Saint Johns Industrial | | Change Station
CLOSE
Current Station
Airport
Location: St. Johns,
Elevation: 5725 ft
Nearby Weather Stations

Elev 5725 ft 34.52 °N, 109.38 °W | Updated 1 hour ago

Overcast
Overcast
58 °F
Feels Like 58 °F
N
21
Wind Variable Wind from West
Gusts 28 mph

Today
High -- | Low -- °F
--% Chance of Precip.
Yesterday
High -- | Low -- °F
Precip. -- in
5:09 AM 7:19 PM
Waxing Crescent, 44% visible
Pressure 29.81 in
Visibility 10.0 miles
Clouds Overcast 9000 ft
Dew Point 35 °F
Humidity 42%
Rainfall 0.00 in
Snow Depth Not available.
UV 0 out of 12
Pollen 4.60 out of 12
Air Quality Not available.
Flu Activity Local Activity
METAR KSJN 250054Z AUTO 28018G24KT 10SM OVC090 14/02 A2996 RMK AO2 PK WND 28031/0003 RAB14E23 SLP095 P0000 T01440017

More Conditions Fewer Conditions

Pressure 29.81 in
Visibility 10.0 miles
Clouds Overcast 9000 ft
Dew Point 35 °F
Humidity 42%
Rainfall 0.00 in
Snow Depth Not available.
UV 0 out of 12
Pollen 4.60 out of 12
Air Quality Not available.
Flu Activity Local Activity
METAR KSJN 250054Z AUTO 28018G24KT 10SM OVC090 14/02 A2996 RMK AO2 PK WND 28031/0003 RAB14E23 SLP095 P0000 T01440017

More Conditions Fewer Conditions

10-Day Weather Forecast

Almanac

Astronomy

May. 24, 2015 Rise Set
Actual Time
Civil Twilight
Nautical Twilight
Astronomical Twilight
Moon
Length of Visible Light
Length of Day
Tomorrow will be .
, % of the Moon is Illuminated

Today's Extremes

State Highs State Lows

Community

WunderPhotos

Upload Photos

1,823,918 photos uploaded!

WunderBlogs® & News

Nearby

Air Quality

  Air Quality AQ Index Pollutant
Not available.

Snow Depth

Station Depth Elevation

Earthquake Activity

City Distance Mag. Time & Date
Minimum magnitude displayed is 2.5.

Coastal Water Temperatures

Place Temperature

Stations

Nearby Weather Stations

Station Location Temp. Windchill Dew Point Humidity Wind Precip. Elev Updated Type